createdAt,value
2017-10-19T00:00:48.014Z,10.20
2017-10-19T00:03:15.812Z,10.20
2017-10-19T00:05:44.466Z,10.20
2017-10-19T00:08:12.332Z,10.20
2017-10-19T00:10:40.200Z,10.20
2017-10-19T00:13:08.068Z,10.20
2017-10-19T00:15:35.934Z,10.20
2017-10-19T00:18:03.802Z,10.20
2017-10-19T00:20:31.669Z,10.20
2017-10-19T00:22:59.466Z,10.20
2017-10-19T00:25:28.121Z,10.20
2017-10-19T00:27:55.993Z,10.10
2017-10-19T00:30:23.855Z,10.20
2017-10-19T00:32:51.723Z,10.10
2017-10-19T00:35:19.590Z,10.10
2017-10-19T00:37:47.458Z,10.10
2017-10-19T00:40:15.324Z,10.10
2017-10-19T00:42:43.193Z,10.10
2017-10-19T00:45:11.062Z,10.00
2017-10-19T00:47:38.932Z,9.90
2017-10-19T00:50:06.798Z,9.80
2017-10-19T00:52:34.663Z,9.70
2017-10-19T00:55:02.530Z,9.70
2017-10-19T00:57:30.401Z,9.60
2017-10-19T00:59:58.266Z,9.60
2017-10-19T01:02:26.135Z,9.60
2017-10-19T01:04:53.998Z,9.50
2017-10-19T01:07:21.867Z,9.50
2017-10-19T01:09:49.733Z,9.50
2017-10-19T01:12:17.599Z,9.40
2017-10-19T01:14:45.474Z,9.40
2017-10-19T01:17:13.334Z,9.40
2017-10-19T01:19:41.203Z,9.40
2017-10-19T01:22:09.069Z,9.30
2017-10-19T01:24:36.936Z,9.20
2017-10-19T01:27:04.804Z,9.20
2017-10-19T01:29:32.671Z,9.20
2017-10-19T01:32:00.640Z,9.20
2017-10-19T01:34:28.611Z,9.20
2017-10-19T01:36:56.480Z,9.20
2017-10-19T01:39:24.345Z,9.20
2017-10-19T01:41:52.213Z,9.30
2017-10-19T01:44:20.080Z,9.30
2017-10-19T01:46:47.947Z,9.30
2017-10-19T01:49:15.816Z,9.30
2017-10-19T01:51:43.682Z,9.30
2017-10-19T01:54:11.548Z,9.30
2017-10-19T01:56:39.416Z,9.30
2017-10-19T01:59:07.284Z,9.30
2017-10-19T02:01:35.151Z,9.30
2017-10-19T02:04:03.021Z,9.30
2017-10-19T02:06:30.885Z,9.00
2017-10-19T02:08:58.753Z,8.90
2017-10-19T02:11:26.620Z,9.00
2017-10-19T02:13:54.488Z,9.10
2017-10-19T02:16:22.355Z,9.10
2017-10-19T02:18:50.221Z,9.10
2017-10-19T02:21:18.090Z,9.10
2017-10-19T02:23:45.957Z,9.10
2017-10-19T02:26:13.823Z,9.10
2017-10-19T02:28:41.691Z,9.10
2017-10-19T02:31:09.558Z,9.10
2017-10-19T02:33:37.426Z,9.10
2017-10-19T02:36:05.293Z,9.10
2017-10-19T02:38:33.160Z,9.10
2017-10-19T02:41:01.028Z,9.10
2017-10-19T02:43:28.895Z,9.20
2017-10-19T02:45:56.762Z,9.20
2017-10-19T02:48:24.629Z,9.20
2017-10-19T02:50:52.497Z,9.20
2017-10-19T02:53:20.368Z,9.20
2017-10-19T02:55:48.233Z,9.30
2017-10-19T02:58:16.105Z,9.30
2017-10-19T03:00:43.965Z,9.40
2017-10-19T03:03:11.845Z,9.40
2017-10-19T03:05:39.701Z,9.40
2017-10-19T03:08:07.568Z,9.40
2017-10-19T03:10:35.436Z,9.40
2017-10-19T03:13:03.304Z,9.40
2017-10-19T03:15:31.170Z,9.40
2017-10-19T03:17:59.038Z,9.40
2017-10-19T03:20:26.905Z,9.40
2017-10-19T03:22:54.772Z,9.40
2017-10-19T03:25:22.537Z,9.30
2017-10-19T03:27:50.404Z,9.30
2017-10-19T03:30:18.274Z,9.30
2017-10-19T03:32:46.139Z,9.30
2017-10-19T03:35:14.006Z,9.30
2017-10-19T03:37:41.873Z,9.20
2017-10-19T03:40:09.741Z,9.20
2017-10-19T03:42:37.505Z,9.20
2017-10-19T03:45:05.270Z,9.20
2017-10-19T03:47:33.138Z,9.20
2017-10-19T03:50:01.006Z,9.20
2017-10-19T03:52:28.872Z,9.20
2017-10-19T03:54:56.743Z,9.20
2017-10-19T03:57:24.607Z,9.20
2017-10-19T03:59:52.474Z,9.20
2017-10-19T04:02:20.345Z,9.20
2017-10-19T04:04:48.212Z,9.20
2017-10-19T04:07:16.078Z,9.20
2017-10-19T04:09:43.943Z,9.20
2017-10-19T04:12:11.815Z,9.20
2017-10-19T04:14:39.683Z,9.10
2017-10-19T04:17:07.654Z,9.00
2017-10-19T04:19:35.518Z,9.00
2017-10-19T04:22:03.383Z,9.00
2017-10-19T04:24:31.250Z,9.00
2017-10-19T04:26:59.117Z,9.00
2017-10-19T04:29:26.984Z,9.00
2017-10-19T04:31:55.774Z,9.00
2017-10-19T04:34:23.640Z,9.10
2017-10-19T04:36:51.508Z,9.10
2017-10-19T04:39:19.375Z,9.00
2017-10-19T04:41:47.244Z,9.00
2017-10-19T04:44:15.110Z,9.00
2017-10-19T04:46:42.977Z,9.00
2017-10-19T04:49:10.851Z,9.00
2017-10-19T04:51:38.712Z,9.10
2017-10-19T04:54:06.578Z,9.00
2017-10-19T04:56:34.446Z,9.00
2017-10-19T04:59:02.314Z,9.00
2017-10-19T05:01:30.181Z,8.90
2017-10-19T05:03:58.049Z,8.90
2017-10-19T05:06:25.913Z,8.90
2017-10-19T05:08:53.783Z,8.90
2017-10-19T05:11:21.650Z,8.80
2017-10-19T05:13:49.523Z,8.80
2017-10-19T05:16:17.384Z,8.80
2017-10-19T05:18:45.254Z,8.80
2017-10-19T05:21:13.120Z,8.90
2017-10-19T05:23:40.988Z,9.00
2017-10-19T05:26:08.855Z,9.00
2017-10-19T05:28:36.724Z,9.10
2017-10-19T05:31:04.591Z,9.20
2017-10-19T05:33:32.456Z,9.30
2017-10-19T05:36:00.324Z,9.30
2017-10-19T05:38:28.395Z,9.40
2017-10-19T05:40:56.264Z,9.50
2017-10-19T05:43:24.062Z,9.50
2017-10-19T05:45:52.715Z,9.60
2017-10-19T05:48:20.584Z,9.60
2017-10-19T05:50:48.452Z,9.60
2017-10-19T05:53:16.316Z,9.60
2017-10-19T05:55:44.184Z,9.60
2017-10-19T05:58:12.051Z,9.60
2017-10-19T06:00:39.920Z,9.60
2017-10-19T06:03:07.792Z,9.60
2017-10-19T06:05:35.653Z,9.60
2017-10-19T06:08:03.521Z,9.60
2017-10-19T06:10:31.388Z,9.60
2017-10-19T06:12:59.255Z,9.60
2017-10-19T06:15:27.123Z,9.70
2017-10-19T06:17:54.928Z,9.70
2017-10-19T06:20:23.573Z,9.70
2017-10-19T06:22:51.441Z,9.70
2017-10-19T06:25:19.308Z,9.70
2017-10-19T06:27:47.175Z,9.60
2017-10-19T06:30:15.042Z,9.60
2017-10-19T06:32:42.910Z,9.70
2017-10-19T06:35:10.777Z,9.70
2017-10-19T06:37:38.644Z,9.80
2017-10-19T06:40:06.512Z,9.80
2017-10-19T06:42:34.379Z,9.90
2017-10-19T06:45:02.251Z,9.90
2017-10-19T06:47:30.115Z,9.90
2017-10-19T06:49:57.981Z,10.00
2017-10-19T06:52:25.850Z,10.00
2017-10-19T06:54:53.717Z,10.10
2017-10-19T06:57:21.583Z,10.20
2017-10-19T06:59:49.460Z,10.30
2017-10-19T07:02:17.317Z,10.30
2017-10-19T07:04:45.186Z,10.40
2017-10-19T07:07:13.052Z,10.50
2017-10-19T07:09:40.941Z,10.60
2017-10-19T07:12:08.788Z,10.70
2017-10-19T07:14:36.655Z,10.90
2017-10-19T07:17:04.526Z,11.00
2017-10-19T07:19:32.392Z,11.20
2017-10-19T07:22:00.257Z,11.30
2017-10-19T07:24:28.129Z,11.50
2017-10-19T07:26:55.995Z,11.70
2017-10-19T07:29:23.863Z,11.80
2017-10-19T07:31:51.727Z,12.00
2017-10-19T07:34:19.603Z,12.10
2017-10-19T07:36:47.461Z,12.20
2017-10-19T07:39:15.328Z,12.30
2017-10-19T07:41:43.195Z,12.40
2017-10-19T07:44:11.063Z,12.50
2017-10-19T07:46:38.929Z,12.60
2017-10-19T07:49:06.796Z,12.60
2017-10-19T07:51:34.665Z,12.70
2017-10-19T07:54:02.533Z,12.80
2017-10-19T07:56:30.398Z,13.00
2017-10-19T07:58:58.267Z,13.10
2017-10-19T08:01:26.135Z,13.20
2017-10-19T08:03:54.001Z,13.40
2017-10-19T08:06:21.863Z,13.60
2017-10-19T08:08:49.736Z,13.90
2017-10-19T08:11:17.603Z,14.20
2017-10-19T08:13:45.470Z,14.60
2017-10-19T08:16:13.338Z,15.30
2017-10-19T08:18:41.204Z,16.70
2017-10-19T08:21:09.071Z,18.30
2017-10-19T08:23:36.939Z,19.80
2017-10-19T08:26:04.806Z,21.30
2017-10-19T08:28:32.673Z,22.80
2017-10-19T08:31:00.542Z,24.00
2017-10-19T08:33:28.409Z,25.00
2017-10-19T08:35:56.281Z,25.90
2017-10-19T08:38:24.143Z,26.80
2017-10-19T08:40:52.012Z,27.10
2017-10-19T08:43:19.878Z,27.30
2017-10-19T08:45:47.745Z,27.90
2017-10-19T08:48:15.613Z,28.70
2017-10-19T08:50:43.480Z,29.80
2017-10-19T08:53:11.347Z,30.60
2017-10-19T08:55:39.147Z,31.40
2017-10-19T08:58:07.626Z,32.60
2017-10-19T09:00:36.177Z,32.30
2017-10-19T09:03:04.047Z,32.30
2017-10-19T09:05:31.913Z,32.40
2017-10-19T09:07:59.779Z,32.70
2017-10-19T09:10:27.647Z,33.20
2017-10-19T09:12:55.514Z,33.50
2017-10-19T09:15:23.383Z,33.90
2017-10-19T09:17:51.249Z,34.50
2017-10-19T09:20:19.117Z,34.90
2017-10-19T09:22:46.986Z,35.30
2017-10-19T09:25:14.851Z,35.40
2017-10-19T09:27:42.718Z,35.50
2017-10-19T09:30:10.586Z,35.40
2017-10-19T09:32:38.458Z,35.20
2017-10-19T09:35:06.320Z,35.20
2017-10-19T09:37:34.187Z,34.70
2017-10-19T09:40:02.055Z,34.40
2017-10-19T09:42:29.922Z,34.10
2017-10-19T09:44:57.791Z,34.40
2017-10-19T09:47:25.657Z,34.10
2017-10-19T09:49:53.525Z,33.50
2017-10-19T09:52:21.392Z,33.40
2017-10-19T09:54:49.260Z,33.30
2017-10-19T09:57:17.126Z,33.00
2017-10-19T09:59:44.993Z,31.90
2017-10-19T10:02:12.864Z,31.70
2017-10-19T10:04:40.728Z,31.60
2017-10-19T10:07:08.595Z,30.80
2017-10-19T10:09:36.466Z,30.10
2017-10-19T10:12:04.329Z,29.40
2017-10-19T10:14:32.198Z,29.50
2017-10-19T10:17:00.070Z,29.50
2017-10-19T10:19:27.932Z,29.40
2017-10-19T10:21:55.800Z,29.20
2017-10-19T10:24:23.667Z,28.70
2017-10-19T10:26:51.534Z,28.60
2017-10-19T10:29:19.404Z,28.70
2017-10-19T10:31:47.276Z,27.80
2017-10-19T10:34:15.141Z,27.30
2017-10-19T10:36:43.003Z,26.80
2017-10-19T10:39:10.875Z,26.20
2017-10-19T10:41:38.742Z,24.90
2017-10-19T10:44:06.609Z,24.40
2017-10-19T10:46:34.473Z,24.10
2017-10-19T10:49:02.320Z,24.10
2017-10-19T10:51:30.208Z,24.30
2017-10-19T10:53:58.075Z,24.00
2017-10-19T10:56:25.942Z,23.60
2017-10-19T10:58:53.809Z,23.30
2017-10-19T11:01:21.676Z,23.10
2017-10-19T11:03:49.544Z,23.20
2017-10-19T11:06:17.413Z,23.70
2017-10-19T11:08:45.279Z,24.10
2017-10-19T11:11:13.146Z,24.40
2017-10-19T11:13:41.012Z,24.60
2017-10-19T11:16:08.747Z,24.40
2017-10-19T11:18:36.543Z,24.30
2017-10-19T11:21:04.412Z,24.50
2017-10-19T11:23:32.277Z,24.60
2017-10-19T11:26:00.146Z,24.80
2017-10-19T11:28:28.012Z,24.70
2017-10-19T11:30:55.879Z,24.20
2017-10-19T11:33:23.754Z,23.70
2017-10-19T11:35:51.623Z,23.20
2017-10-19T11:38:19.481Z,23.10
2017-10-19T11:40:47.352Z,22.90
2017-10-19T11:43:15.217Z,22.70
2017-10-19T11:45:43.083Z,22.70
2017-10-19T11:48:10.953Z,22.70
2017-10-19T11:50:38.825Z,22.90
2017-10-19T11:53:06.686Z,23.20
2017-10-19T11:55:34.552Z,23.60
2017-10-19T11:58:02.420Z,23.80
2017-10-19T12:00:30.287Z,24.00
2017-10-19T12:02:58.154Z,23.90
2017-10-19T12:05:26.023Z,24.00
2017-10-19T12:07:53.888Z,24.10
2017-10-19T12:10:21.756Z,24.40
2017-10-19T12:12:49.623Z,24.60
2017-10-19T12:15:17.491Z,24.90
2017-10-19T12:17:45.358Z,25.10
2017-10-19T12:20:13.226Z,25.20
2017-10-19T12:22:41.093Z,25.30
2017-10-19T12:25:08.961Z,25.40
2017-10-19T12:27:36.828Z,25.30
2017-10-19T12:30:04.697Z,25.20
2017-10-19T12:32:32.563Z,25.30
2017-10-19T12:35:00.439Z,25.20
2017-10-19T12:37:28.297Z,25.10
2017-10-19T12:39:56.164Z,25.20
2017-10-19T12:42:24.032Z,25.30
2017-10-19T12:44:51.905Z,25.50
2017-10-19T12:47:19.766Z,25.10
2017-10-19T12:49:47.633Z,24.80
2017-10-19T12:52:15.500Z,24.80
2017-10-19T12:54:43.367Z,24.70
2017-10-19T12:57:11.235Z,24.50
2017-10-19T12:59:39.102Z,24.50
2017-10-19T13:02:06.969Z,24.60
2017-10-19T13:04:34.838Z,24.90
2017-10-19T13:07:02.738Z,25.20
2017-10-19T13:09:31.392Z,25.80
2017-10-19T13:11:59.258Z,25.80
2017-10-19T13:14:27.126Z,26.10
2017-10-19T13:16:55.019Z,26.30
2017-10-19T13:19:23.681Z,26.80
2017-10-19T13:21:51.548Z,26.80
2017-10-19T13:24:19.414Z,27.10
2017-10-19T13:26:47.283Z,27.20
2017-10-19T13:29:15.148Z,27.30
2017-10-19T13:31:43.016Z,27.40
2017-10-19T13:34:10.884Z,27.30
2017-10-19T13:36:38.751Z,27.30
2017-10-19T13:39:06.618Z,27.20
2017-10-19T13:41:34.485Z,27.30
2017-10-19T13:44:02.358Z,27.40
2017-10-19T13:46:30.223Z,27.30
2017-10-19T13:48:58.089Z,27.30
2017-10-19T13:51:25.956Z,27.30
2017-10-19T13:53:53.824Z,27.30
2017-10-19T13:56:21.694Z,26.90
2017-10-19T13:58:49.559Z,26.90
2017-10-19T14:01:17.425Z,26.70
2017-10-19T14:03:45.293Z,26.40
2017-10-19T14:06:13.158Z,26.10
2017-10-19T14:08:41.026Z,26.10
2017-10-19T14:11:08.897Z,25.90
2017-10-19T14:13:36.760Z,25.90
2017-10-19T14:16:04.628Z,25.60
2017-10-19T14:18:32.495Z,25.20
2017-10-19T14:21:00.362Z,25.10
2017-10-19T14:23:28.230Z,25.10
2017-10-19T14:25:56.098Z,24.90
2017-10-19T14:28:23.969Z,24.80
2017-10-19T14:30:51.934Z,24.80
2017-10-19T14:33:19.801Z,24.90
2017-10-19T14:35:47.667Z,25.10
2017-10-19T14:38:15.535Z,25.10
2017-10-19T14:40:43.403Z,25.20
2017-10-19T14:43:11.270Z,25.20
2017-10-19T14:45:39.037Z,25.10
2017-10-19T14:48:06.902Z,25.10
2017-10-19T14:50:34.769Z,25.30
2017-10-19T14:53:02.638Z,25.60
2017-10-19T14:55:30.503Z,26.00
2017-10-19T14:57:58.299Z,26.60
2017-10-19T15:00:26.136Z,27.10
2017-10-19T15:02:54.004Z,27.30
2017-10-19T15:05:21.871Z,27.50
2017-10-19T15:07:49.739Z,27.50
2017-10-19T15:10:17.624Z,27.60
2017-10-19T15:12:45.473Z,27.80
2017-10-19T15:15:13.341Z,27.70
2017-10-19T15:17:41.208Z,27.60
2017-10-19T15:20:09.076Z,27.80
2017-10-19T15:22:36.943Z,28.00
2017-10-19T15:25:04.810Z,27.90
2017-10-19T15:27:32.677Z,27.70
2017-10-19T15:30:00.546Z,27.20
2017-10-19T15:32:28.412Z,26.70
2017-10-19T15:34:56.279Z,26.40
2017-10-19T15:37:24.146Z,26.00
2017-10-19T15:39:52.013Z,25.80
2017-10-19T15:42:19.882Z,25.40
2017-10-19T15:44:47.751Z,25.10
2017-10-19T15:47:15.616Z,24.60
2017-10-19T15:49:43.483Z,24.10
2017-10-19T15:52:11.197Z,23.70
2017-10-19T15:54:39.687Z,23.10
2017-10-19T15:57:07.496Z,23.00
2017-10-19T15:59:35.219Z,22.70
2017-10-19T16:02:02.946Z,22.10
2017-10-19T16:04:30.658Z,21.40
2017-10-19T16:06:58.378Z,20.90
2017-10-19T16:09:26.114Z,20.40
2017-10-19T16:11:53.831Z,20.10
2017-10-19T16:14:21.645Z,19.80
2017-10-19T16:16:49.444Z,19.70
2017-10-19T16:19:17.994Z,19.00
2017-10-19T16:21:45.864Z,19.00
2017-10-19T16:24:13.728Z,18.80
2017-10-19T16:26:41.443Z,18.70
2017-10-19T16:29:09.154Z,18.40
2017-10-19T16:31:36.863Z,18.30
2017-10-19T16:34:05.505Z,18.10
2017-10-19T16:36:33.215Z,18.10
2017-10-19T16:39:01.695Z,17.90
2017-10-19T16:41:30.234Z,17.80
2017-10-19T16:43:57.950Z,17.80
2017-10-19T16:46:25.762Z,17.80
2017-10-19T16:48:53.630Z,17.90
2017-10-19T16:51:21.346Z,17.90
2017-10-19T16:53:49.069Z,17.70
2017-10-19T16:56:16.783Z,17.50
2017-10-19T16:58:44.498Z,17.50
2017-10-19T17:01:12.351Z,17.60
2017-10-19T17:03:40.062Z,17.70
2017-10-19T17:06:08.546Z,17.70
2017-10-19T17:08:37.112Z,17.50
2017-10-19T17:11:05.769Z,17.30
2017-10-19T17:13:33.495Z,17.30
2017-10-19T17:16:01.302Z,17.20
2017-10-19T17:18:29.168Z,17.30
2017-10-19T17:20:56.883Z,17.20
2017-10-19T17:23:24.596Z,17.20
2017-10-19T17:25:52.359Z,17.20
2017-10-19T17:28:20.081Z,17.20
2017-10-19T17:30:47.803Z,17.30
2017-10-19T17:33:15.530Z,17.30
2017-10-19T17:35:43.416Z,17.30
2017-10-19T17:38:11.283Z,17.30
2017-10-19T17:40:39.151Z,17.20
2017-10-19T17:43:06.870Z,17.20
2017-10-19T17:45:34.680Z,17.00
2017-10-19T17:48:02.548Z,17.10
2017-10-19T17:50:30.415Z,17.20
2017-10-19T17:52:58.215Z,17.20
2017-10-19T17:55:26.866Z,17.30
2017-10-19T17:57:54.659Z,17.20
2017-10-19T18:00:22.398Z,17.30
2017-10-19T18:02:50.195Z,17.30
2017-10-19T18:05:18.848Z,17.40
2017-10-19T18:07:46.679Z,17.30
2017-10-19T18:10:14.468Z,17.30
2017-10-19T18:12:42.348Z,17.20
2017-10-19T18:15:10.215Z,17.10
2017-10-19T18:17:38.082Z,17.00
2017-10-19T18:20:05.949Z,16.90
2017-10-19T18:22:33.817Z,17.00
2017-10-19T18:25:01.539Z,17.00
2017-10-19T18:27:29.251Z,17.10
2017-10-19T18:29:56.966Z,17.10
2017-10-19T18:32:24.683Z,17.10
2017-10-19T18:34:52.406Z,17.00
2017-10-19T18:37:20.118Z,17.00
2017-10-19T18:39:47.835Z,16.90
2017-10-19T18:42:15.631Z,16.80
2017-10-19T18:44:44.235Z,16.80
2017-10-19T18:47:15.704Z,16.70
2017-10-19T18:49:47.798Z,16.80
2017-10-19T18:52:19.857Z,16.80
2017-10-19T18:54:54.739Z,16.80
2017-10-19T18:57:28.348Z,16.80
2017-10-19T19:00:01.557Z,16.80
2017-10-19T19:02:33.071Z,16.80
2017-10-19T19:05:06.366Z,16.70
2017-10-19T19:07:40.726Z,16.70
2017-10-19T19:10:17.089Z,16.70
2017-10-19T19:12:49.854Z,16.70
2017-10-19T19:15:21.385Z,16.50
2017-10-19T19:17:53.471Z,16.40
2017-10-19T19:20:25.375Z,16.20
2017-10-19T19:22:53.267Z,16.30
2017-10-19T19:25:20.989Z,16.30
2017-10-19T19:27:50.151Z,16.30
2017-10-19T19:30:18.018Z,16.30
2017-10-19T19:32:45.763Z,16.30
2017-10-19T19:35:13.477Z,16.30
2017-10-19T19:37:42.103Z,16.30
2017-10-19T19:40:09.862Z,16.30
2017-10-19T19:42:37.587Z,16.30
2017-10-19T19:45:05.306Z,16.30
2017-10-19T19:47:33.020Z,16.20
2017-10-19T19:50:01.511Z,16.10
2017-10-19T19:52:30.012Z,16.10
2017-10-19T19:54:57.818Z,16.10
2017-10-19T19:57:25.559Z,16.10
2017-10-19T19:59:53.283Z,15.90
2017-10-19T20:02:21.931Z,15.80
2017-10-19T20:04:49.801Z,15.70
2017-10-19T20:07:17.515Z,15.60
2017-10-19T20:09:45.328Z,15.30
2017-10-19T20:12:13.038Z,15.20
2017-10-19T20:14:41.526Z,15.10
2017-10-19T20:17:09.256Z,15.10
2017-10-19T20:19:37.005Z,15.20
2017-10-19T20:22:04.743Z,15.20
2017-10-19T20:24:32.476Z,15.20
2017-10-19T20:27:00.970Z,15.20
2017-10-19T20:29:28.706Z,15.20
2017-10-19T20:31:56.444Z,15.20
2017-10-19T20:34:24.174Z,15.10
2017-10-19T20:36:51.970Z,15.00
2017-10-19T20:39:19.707Z,15.00
2017-10-19T20:41:47.443Z,15.10
2017-10-19T20:44:16.087Z,14.90
2017-10-19T20:46:43.955Z,14.90
2017-10-19T20:49:11.821Z,14.90
2017-10-19T20:51:39.686Z,14.90
2017-10-19T20:54:07.416Z,14.90
2017-10-19T20:56:35.150Z,14.80
2017-10-19T20:59:03.642Z,14.70
2017-10-19T21:01:32.139Z,14.70
2017-10-19T21:03:59.955Z,14.70
2017-10-19T21:06:27.812Z,14.70
2017-10-19T21:08:55.569Z,14.60
2017-10-19T21:11:23.287Z,14.60
2017-10-19T21:13:51.764Z,14.50
2017-10-19T21:16:20.279Z,14.50
2017-10-19T21:18:48.070Z,14.50
2017-10-19T21:21:15.936Z,14.50
2017-10-19T21:23:43.805Z,14.40
2017-10-19T21:26:11.534Z,14.30
2017-10-19T21:28:40.176Z,14.30
2017-10-19T21:31:07.904Z,14.30
2017-10-19T21:33:35.620Z,14.20
2017-10-19T21:36:04.126Z,14.10
2017-10-19T21:38:31.837Z,14.10
2017-10-19T21:40:59.560Z,14.10
2017-10-19T21:43:27.290Z,14.00
2017-10-19T21:45:55.773Z,13.90
2017-10-19T21:48:24.423Z,13.90
2017-10-19T21:50:52.155Z,13.90
2017-10-19T21:53:20.057Z,13.90
2017-10-19T21:55:47.923Z,13.90
2017-10-19T21:58:15.790Z,13.90
2017-10-19T22:00:43.592Z,13.90
2017-10-19T22:03:12.082Z,13.90
2017-10-19T22:05:40.615Z,13.90
2017-10-19T22:08:08.488Z,13.80
2017-10-19T22:10:36.355Z,13.80
2017-10-19T22:13:04.224Z,13.90
2017-10-19T22:15:32.090Z,13.80
2017-10-19T22:17:59.957Z,13.80
2017-10-19T22:20:27.824Z,13.80
2017-10-19T22:22:55.563Z,13.70
2017-10-19T22:25:23.291Z,13.80
2017-10-19T22:27:51.783Z,13.80
2017-10-19T22:30:20.271Z,13.70
2017-10-19T22:32:47.981Z,13.70
2017-10-19T22:35:15.699Z,13.70
2017-10-19T22:37:43.406Z,13.70
2017-10-19T22:40:11.129Z,13.60
2017-10-19T22:42:38.840Z,13.60
2017-10-19T22:45:07.342Z,13.60
2017-10-19T22:47:35.058Z,13.60
2017-10-19T22:50:02.770Z,13.60
2017-10-19T22:52:31.293Z,13.60
2017-10-19T22:54:59.002Z,13.60
2017-10-19T22:57:26.727Z,13.60
2017-10-19T22:59:54.441Z,13.50
2017-10-19T23:02:22.189Z,13.40
2017-10-19T23:04:49.940Z,13.40
2017-10-19T23:07:17.663Z,13.40
2017-10-19T23:09:45.387Z,13.40
2017-10-19T23:12:13.109Z,13.50
2017-10-19T23:14:40.839Z,13.50
2017-10-19T23:17:09.335Z,13.50
2017-10-19T23:19:37.827Z,13.50
2017-10-19T23:22:05.542Z,13.50
2017-10-19T23:24:33.263Z,13.50
2017-10-19T23:27:00.989Z,13.50
2017-10-19T23:29:28.928Z,13.50
2017-10-19T23:31:56.795Z,13.50
2017-10-19T23:34:24.662Z,13.60
2017-10-19T23:36:52.463Z,13.60
2017-10-19T23:39:21.042Z,13.60
2017-10-19T23:41:48.809Z,13.60
2017-10-19T23:44:17.307Z,13.60
2017-10-19T23:46:45.945Z,13.70
2017-10-19T23:49:13.810Z,13.60
2017-10-19T23:51:41.681Z,13.60
2017-10-19T23:54:09.549Z,13.70
2017-10-19T23:56:37.419Z,13.70
2017-10-19T23:59:05.147Z,13.70
